sensor_id;sensor_type;location;lat;lon;timestamp;pressure;altitude;pressure_sealevel;temperature;humidity
22862;BME280;11598;50.652;6.172;2023-09-19T00:08:18;95918.59;;;12.67;100.00
22862;BME280;11598;50.652;6.172;2023-09-19T00:18:23;95928.91;;;12.59;100.00
22862;BME280;11598;50.652;6.172;2023-09-19T00:28:28;95939.63;;;12.46;100.00
22862;BME280;11598;50.652;6.172;2023-09-19T00:38:31;95950.19;;;12.35;100.00
22862;BME280;11598;50.652;6.172;2023-09-19T00:48:32;95967.88;;;12.22;100.00
22862;BME280;11598;50.652;6.172;2023-09-19T00:58:40;95971.84;;;12.07;100.00
22862;BME280;11598;50.652;6.172;2023-09-19T01:08:40;95982.78;;;12.00;100.00
22862;BME280;11598;50.652;6.172;2023-09-19T01:18:55;95981.56;;;11.95;100.00
22862;BME280;11598;50.652;6.172;2023-09-19T01:39:29;95985.75;;;11.86;100.00
22862;BME280;11598;50.652;6.172;2023-09-19T01:49:40;96000.84;;;11.92;100.00
22862;BME280;11598;50.652;6.172;2023-09-19T01:59:50;96000.00;;;11.92;100.00
22862;BME280;11598;50.652;6.172;2023-09-19T02:09:53;96013.25;;;11.79;100.00
22862;BME280;11598;50.652;6.172;2023-09-19T02:19:54;96015.13;;;11.67;100.00
22862;BME280;11598;50.652;6.172;2023-09-19T02:29:55;96022.91;;;11.57;100.00
22862;BME280;11598;50.652;6.172;2023-09-19T02:39:56;96022.31;;;11.54;100.00
22862;BME280;11598;50.652;6.172;2023-09-19T02:49:56;96024.19;;;11.42;100.00
22862;BME280;11598;50.652;6.172;2023-09-19T02:59:56;96007.97;;;11.29;100.00
22862;BME280;11598;50.652;6.172;2023-09-19T03:09:57;96013.13;;;11.19;100.00
22862;BME280;11598;50.652;6.172;2023-09-19T03:19:57;96019.94;;;11.10;100.00
22862;BME280;11598;50.652;6.172;2023-09-19T03:29:57;96009.34;;;11.02;100.00
22862;BME280;11598;50.652;6.172;2023-09-19T03:39:58;96029.81;;;10.95;100.00
22862;BME280;11598;50.652;6.172;2023-09-19T03:49:58;96032.94;;;10.89;100.00
22862;BME280;11598;50.652;6.172;2023-09-19T03:59:59;96035.78;;;10.86;100.00
22862;BME280;11598;50.652;6.172;2023-09-19T04:09:59;96036.03;;;10.83;100.00
22862;BME280;11598;50.652;6.172;2023-09-19T04:19:59;96027.78;;;10.78;100.00
22862;BME280;11598;50.652;6.172;2023-09-19T04:30:00;96030.06;;;10.71;100.00
22862;BME280;11598;50.652;6.172;2023-09-19T04:40:01;96032.94;;;10.68;100.00
22862;BME280;11598;50.652;6.172;2023-09-19T04:50:01;96033.56;;;10.61;100.00
22862;BME280;11598;50.652;6.172;2023-09-19T05:00:02;96058.22;;;10.55;100.00
22862;BME280;11598;50.652;6.172;2023-09-19T05:10:07;96071.59;;;10.50;100.00
22862;BME280;11598;50.652;6.172;2023-09-19T05:20:08;96085.75;;;10.46;100.00
22862;BME280;11598;50.652;6.172;2023-09-19T05:30:15;96104.09;;;10.45;100.00
22862;BME280;11598;50.652;6.172;2023-09-19T05:40:19;96099.81;;;10.44;100.00
22862;BME280;11598;50.652;6.172;2023-09-19T05:50:19;96112.44;;;10.48;100.00
22862;BME280;11598;50.652;6.172;2023-09-19T06:00:21;96109.38;;;10.54;100.00
22862;BME280;11598;50.652;6.172;2023-09-19T06:10:24;96129.28;;;10.65;100.00
22862;BME280;11598;50.652;6.172;2023-09-19T06:20:26;96131.09;;;10.86;100.00
22862;BME280;11598;50.652;6.172;2023-09-19T06:30:26;96140.72;;;11.06;100.00
22862;BME280;11598;50.652;6.172;2023-09-19T06:40:29;96141.94;;;11.23;100.00
22862;BME280;11598;50.652;6.172;2023-09-19T06:50:31;96133.13;;;11.35;100.00
22862;BME280;11598;50.652;6.172;2023-09-19T07:00:33;96133.69;;;11.60;100.00
22862;BME280;11598;50.652;6.172;2023-09-19T07:10:36;96130.69;;;11.85;100.00
22862;BME280;11598;50.652;6.172;2023-09-19T07:20:36;96127.09;;;12.08;100.00
22862;BME280;11598;50.652;6.172;2023-09-19T07:30:37;96145.53;;;12.25;100.00
22862;BME280;11598;50.652;6.172;2023-09-19T07:40:37;96136.94;;;12.44;100.00
22862;BME280;11598;50.652;6.172;2023-09-19T07:50:38;96156.47;;;12.69;100.00
22862;BME280;11598;50.652;6.172;2023-09-19T08:00:38;96162.53;;;12.70;100.00
22862;BME280;11598;50.652;6.172;2023-09-19T08:10:38;96154.56;;;12.81;100.00
22862;BME280;11598;50.652;6.172;2023-09-19T08:20:42;96141.97;;;13.06;100.00
22862;BME280;11598;50.652;6.172;2023-09-19T08:30:43;96145.28;;;13.27;100.00
22862;BME280;11598;50.652;6.172;2023-09-19T08:40:43;96149.38;;;13.49;100.00
22862;BME280;11598;50.652;6.172;2023-09-19T08:50:52;96164.34;;;13.57;100.00
22862;BME280;11598;50.652;6.172;2023-09-19T09:00:57;96154.97;;;13.74;100.00
22862;BME280;11598;50.652;6.172;2023-09-19T09:10:58;96162.22;;;13.90;100.00
22862;BME280;11598;50.652;6.172;2023-09-19T09:20:59;96156.91;;;14.09;100.00
22862;BME280;11598;50.652;6.172;2023-09-19T09:31:00;96152.03;;;14.24;100.00
22862;BME280;11598;50.652;6.172;2023-09-19T09:41:08;96159.84;;;14.34;100.00
22862;BME280;11598;50.652;6.172;2023-09-19T09:51:09;96142.03;;;14.47;99.94
22862;BME280;11598;50.652;6.172;2023-09-19T10:01:13;96143.44;;;14.69;96.73
22862;BME280;11598;50.652;6.172;2023-09-19T10:11:16;96144.72;;;14.83;96.63
22862;BME280;11598;50.652;6.172;2023-09-19T10:21:16;96149.75;;;14.94;93.41
22862;BME280;11598;50.652;6.172;2023-09-19T10:31:23;96158.66;;;15.01;90.57
22862;BME280;11598;50.652;6.172;2023-09-19T10:41:27;96147.72;;;15.06;88.85
22862;BME280;11598;50.652;6.172;2023-09-19T10:51:31;96159.69;;;15.09;87.69
22862;BME280;11598;50.652;6.172;2023-09-19T11:01:40;96155.97;;;15.29;89.07
22862;BME280;11598;50.652;6.172;2023-09-19T11:11:43;96163.84;;;15.55;88.20
22862;BME280;11598;50.652;6.172;2023-09-19T11:21:52;96172.25;;;15.41;87.04
22862;BME280;11598;50.652;6.172;2023-09-19T11:31:55;96169.63;;;15.41;87.91
22862;BME280;11598;50.652;6.172;2023-09-19T11:41:59;96166.03;;;15.42;85.67
22862;BME280;11598;50.652;6.172;2023-09-19T11:52:01;96168.59;;;15.34;84.95
22862;BME280;11598;50.652;6.172;2023-09-19T12:02:10;96154.53;;;15.35;86.15
22862;BME280;11598;50.652;6.172;2023-09-19T12:12:26;96155.63;;;15.50;84.51
22862;BME280;11598;50.652;6.172;2023-09-19T12:22:41;96158.47;;;15.57;82.56
22862;BME280;11598;50.652;6.172;2023-09-19T12:32:44;96156.22;;;15.62;83.69
22862;BME280;11598;50.652;6.172;2023-09-19T12:42:45;96151.47;;;15.65;82.29
22862;BME280;11598;50.652;6.172;2023-09-19T12:52:47;96133.06;;;15.75;83.29
22862;BME280;11598;50.652;6.172;2023-09-19T13:13:25;96122.16;;;16.14;81.98
22862;BME280;11598;50.652;6.172;2023-09-19T13:23:27;96104.47;;;16.16;81.73
22862;BME280;11598;50.652;6.172;2023-09-19T13:33:28;96114.97;;;16.24;80.82
22862;BME280;11598;50.652;6.172;2023-09-19T13:43:28;96126.25;;;16.17;81.47
22862;BME280;11598;50.652;6.172;2023-09-19T13:53:29;96133.25;;;16.08;82.63
22862;BME280;11598;50.652;6.172;2023-09-19T14:03:29;96131.16;;;16.12;82.33
22862;BME280;11598;50.652;6.172;2023-09-19T14:13:29;96123.50;;;16.26;81.37
22862;BME280;11598;50.652;6.172;2023-09-19T14:23:39;96127.78;;;16.27;81.75
22862;BME280;11598;50.652;6.172;2023-09-19T14:33:39;96133.66;;;16.21;82.64
22862;BME280;11598;50.652;6.172;2023-09-19T14:43:40;96140.81;;;16.11;81.63
22862;BME280;11598;50.652;6.172;2023-09-19T14:53:40;96132.59;;;16.06;81.80
22862;BME280;11598;50.652;6.172;2023-09-19T15:03:44;96125.84;;;15.95;82.59
22862;BME280;11598;50.652;6.172;2023-09-19T15:13:46;96127.63;;;15.69;83.65
22862;BME280;11598;50.652;6.172;2023-09-19T15:23:46;96125.59;;;15.80;85.18
22862;BME280;11598;50.652;6.172;2023-09-19T15:33:47;96126.69;;;15.78;85.42
22862;BME280;11598;50.652;6.172;2023-09-19T15:43:47;96123.25;;;15.77;85.72
22862;BME280;11598;50.652;6.172;2023-09-19T15:53:52;96111.25;;;15.67;84.02
22862;BME280;11598;50.652;6.172;2023-09-19T16:03:54;96106.38;;;15.54;84.96
22862;BME280;11598;50.652;6.172;2023-09-19T16:13:57;96111.06;;;15.42;86.04
22862;BME280;11598;50.652;6.172;2023-09-19T16:23:59;96097.94;;;15.16;86.80
22862;BME280;11598;50.652;6.172;2023-09-19T16:33:59;96096.03;;;14.82;88.64
22862;BME280;11598;50.652;6.172;2023-09-19T16:44:00;96119.28;;;14.57;88.99
22862;BME280;11598;50.652;6.172;2023-09-19T16:54:01;96104.06;;;14.43;90.15
22862;BME280;11598;50.652;6.172;2023-09-19T17:04:01;96103.31;;;14.33;91.16
22862;BME280;11598;50.652;6.172;2023-09-19T17:14:02;96095.28;;;14.16;92.45
22862;BME280;11598;50.652;6.172;2023-09-19T17:24:04;96099.63;;;13.98;92.93
22862;BME280;11598;50.652;6.172;2023-09-19T17:34:07;96112.34;;;13.83;92.65
22862;BME280;11598;50.652;6.172;2023-09-19T17:44:08;96105.63;;;13.71;93.31
22862;BME280;11598;50.652;6.172;2023-09-19T17:54:11;96111.03;;;13.60;94.51
22862;BME280;11598;50.652;6.172;2023-09-19T18:04:14;96103.06;;;13.51;94.66
22862;BME280;11598;50.652;6.172;2023-09-19T18:14:15;96113.41;;;13.43;96.17
22862;BME280;11598;50.652;6.172;2023-09-19T18:24:17;96113.69;;;13.50;96.75
22862;BME280;11598;50.652;6.172;2023-09-19T18:34:18;96122.56;;;13.67;96.34
22862;BME280;11598;50.652;6.172;2023-09-19T18:44:19;96123.06;;;13.80;95.97
22862;BME280;11598;50.652;6.172;2023-09-19T18:54:19;96133.63;;;13.88;95.24
22862;BME280;11598;50.652;6.172;2023-09-19T19:04:19;96122.31;;;13.98;95.31
22862;BME280;11598;50.652;6.172;2023-09-19T19:14:20;96105.25;;;14.03;95.28
22862;BME280;11598;50.652;6.172;2023-09-19T19:24:20;96115.44;;;14.06;94.70
22862;BME280;11598;50.652;6.172;2023-09-19T19:34:23;96112.94;;;14.05;94.44
22862;BME280;11598;50.652;6.172;2023-09-19T19:44:25;96130.41;;;14.04;94.34
22862;BME280;11598;50.652;6.172;2023-09-19T19:54:26;96129.72;;;14.02;95.21
22862;BME280;11598;50.652;6.172;2023-09-19T20:04:26;96117.38;;;13.94;96.16
22862;BME280;11598;50.652;6.172;2023-09-19T20:14:28;96116.72;;;13.92;95.95
22862;BME280;11598;50.652;6.172;2023-09-19T20:24:29;96120.53;;;13.98;96.11
22862;BME280;11598;50.652;6.172;2023-09-19T20:34:29;96118.16;;;14.05;96.12
22862;BME280;11598;50.652;6.172;2023-09-19T20:44:30;96095.19;;;14.08;96.03
22862;BME280;11598;50.652;6.172;2023-09-19T20:54:30;96114.19;;;14.01;96.65
22862;BME280;11598;50.652;6.172;2023-09-19T21:04:31;96121.06;;;14.02;96.94
22862;BME280;11598;50.652;6.172;2023-09-19T21:14:32;96104.56;;;14.01;97.03
22862;BME280;11598;50.652;6.172;2023-09-19T21:24:33;96096.34;;;13.96;97.65
22862;BME280;11598;50.652;6.172;2023-09-19T21:34:37;96089.09;;;13.90;98.34
22862;BME280;11598;50.652;6.172;2023-09-19T21:44:37;96084.00;;;13.88;98.84
22862;BME280;11598;50.652;6.172;2023-09-19T21:54:38;96083.19;;;13.88;99.47
22862;BME280;11598;50.652;6.172;2023-09-19T22:04:38;96074.69;;;13.86;100.00
22862;BME280;11598;50.652;6.172;2023-09-19T22:14:40;96072.50;;;13.81;100.00
22862;BME280;11598;50.652;6.172;2023-09-19T22:24:40;96074.13;;;13.82;100.00
22862;BME280;11598;50.652;6.172;2023-09-19T22:34:41;96076.47;;;13.85;100.00
22862;BME280;11598;50.652;6.172;2023-09-19T22:44:41;96069.44;;;13.86;100.00
22862;BME280;11598;50.652;6.172;2023-09-19T22:54:45;96079.91;;;13.86;100.00
22862;BME280;11598;50.652;6.172;2023-09-19T23:04:45;96078.09;;;13.86;100.00
22862;BME280;11598;50.652;6.172;2023-09-19T23:14:46;96083.31;;;13.86;100.00
22862;BME280;11598;50.652;6.172;2023-09-19T23:24:46;96072.59;;;13.89;100.00
22862;BME280;11598;50.652;6.172;2023-09-19T23:34:49;96086.31;;;13.91;100.00
22862;BME280;11598;50.652;6.172;2023-09-19T23:44:50;96078.78;;;13.88;100.00
22862;BME280;11598;50.652;6.172;2023-09-19T23:54:51;96079.28;;;14.02;100.00
